sensor_id;sensor_type;location;lat;lon;timestamp;P1;durP1;ratioP1;P2;durP2;ratioP2
79539;SDS011;68991;52.122;5.406;2023-06-22T00:01:17;1.92;;;1.58;;
79539;SDS011;68991;52.122;5.406;2023-06-22T00:03:44;4.28;;;1.90;;
79539;SDS011;68991;52.122;5.406;2023-06-22T00:06:11;1.77;;;1.35;;
79539;SDS011;68991;52.122;5.406;2023-06-22T00:08:37;3.20;;;1.80;;
79539;SDS011;68991;52.122;5.406;2023-06-22T00:11:03;3.55;;;1.90;;
79539;SDS011;68991;52.122;5.406;2023-06-22T00:13:30;3.15;;;1.70;;
79539;SDS011;68991;52.122;5.406;2023-06-22T00:15:56;2.70;;;1.75;;
79539;SDS011;68991;52.122;5.406;2023-06-22T00:18:23;2.15;;;1.50;;
79539;SDS011;68991;52.122;5.406;2023-06-22T00:20:54;2.88;;;1.75;;
79539;SDS011;68991;52.122;5.406;2023-06-22T00:23:23;3.38;;;2.00;;
79539;SDS011;68991;52.122;5.406;2023-06-22T00:25:51;2.42;;;1.70;;
79539;SDS011;68991;52.122;5.406;2023-06-22T00:28:17;2.90;;;1.75;;
79539;SDS011;68991;52.122;5.406;2023-06-22T00:30:44;2.45;;;1.70;;
79539;SDS011;68991;52.122;5.406;2023-06-22T00:33:11;2.95;;;1.88;;
79539;SDS011;68991;52.122;5.406;2023-06-22T00:35:38;2.97;;;1.83;;
79539;SDS011;68991;52.122;5.406;2023-06-22T00:38:07;3.30;;;1.60;;
79539;SDS011;68991;52.122;5.406;2023-06-22T00:40:34;2.08;;;1.55;;
79539;SDS011;68991;52.122;5.406;2023-06-22T00:43:01;2.35;;;1.75;;
79539;SDS011;68991;52.122;5.406;2023-06-22T00:45:28;3.15;;;1.60;;
79539;SDS011;68991;52.122;5.406;2023-06-22T00:47:58;2.15;;;1.67;;
79539;SDS011;68991;52.122;5.406;2023-06-22T00:50:26;3.22;;;1.80;;
79539;SDS011;68991;52.122;5.406;2023-06-22T00:52:56;3.47;;;2.05;;
79539;SDS011;68991;52.122;5.406;2023-06-22T00:55:25;3.15;;;2.10;;
79539;SDS011;68991;52.122;5.406;2023-06-22T00:57:52;4.25;;;1.83;;
79539;SDS011;68991;52.122;5.406;2023-06-22T01:00:23;3.67;;;1.83;;
79539;SDS011;68991;52.122;5.406;2023-06-22T01:02:51;3.05;;;1.85;;
79539;SDS011;68991;52.122;5.406;2023-06-22T01:05:19;2.65;;;2.05;;
79539;SDS011;68991;52.122;5.406;2023-06-22T01:16:03;2.33;;;1.48;;
79539;SDS011;68991;52.122;5.406;2023-06-22T01:18:36;2.20;;;1.75;;
79539;SDS011;68991;52.122;5.406;2023-06-22T01:21:07;2.88;;;2.00;;
79539;SDS011;68991;52.122;5.406;2023-06-22T01:26:43;2.85;;;1.50;;
79539;SDS011;68991;52.122;5.406;2023-06-22T01:29:20;2.83;;;1.73;;
79539;SDS011;68991;52.122;5.406;2023-06-22T01:31:50;2.90;;;2.10;;
79539;SDS011;68991;52.122;5.406;2023-06-22T01:34:18;2.60;;;1.75;;
79539;SDS011;68991;52.122;5.406;2023-06-22T01:36:45;2.55;;;1.75;;
79539;SDS011;68991;52.122;5.406;2023-06-22T01:39:12;3.13;;;1.73;;
79539;SDS011;68991;52.122;5.406;2023-06-22T01:41:40;2.80;;;1.88;;
79539;SDS011;68991;52.122;5.406;2023-06-22T01:44:08;2.80;;;1.88;;
79539;SDS011;68991;52.122;5.406;2023-06-22T01:46:36;2.53;;;2.00;;
79539;SDS011;68991;52.122;5.406;2023-06-22T01:49:04;2.35;;;1.73;;
79539;SDS011;68991;52.122;5.406;2023-06-22T01:51:32;1.75;;;1.50;;
79539;SDS011;68991;52.122;5.406;2023-06-22T01:53:58;2.25;;;1.63;;
79539;SDS011;68991;52.122;5.406;2023-06-22T01:56:25;2.47;;;1.65;;
79539;SDS011;68991;52.122;5.406;2023-06-22T01:59:14;3.08;;;1.77;;
79539;SDS011;68991;52.122;5.406;2023-06-22T02:01:52;3.42;;;1.98;;
79539;SDS011;68991;52.122;5.406;2023-06-22T02:04:27;2.75;;;1.85;;
79539;SDS011;68991;52.122;5.406;2023-06-22T02:07:02;3.55;;;2.00;;
79539;SDS011;68991;52.122;5.406;2023-06-22T02:09:35;2.80;;;1.60;;
79539;SDS011;68991;52.122;5.406;2023-06-22T02:12:04;2.75;;;1.88;;
79539;SDS011;68991;52.122;5.406;2023-06-22T02:14:33;1.98;;;1.50;;
79539;SDS011;68991;52.122;5.406;2023-06-22T02:17:01;2.05;;;1.40;;
79539;SDS011;68991;52.122;5.406;2023-06-22T02:19:28;2.55;;;1.77;;
79539;SDS011;68991;52.122;5.406;2023-06-22T02:21:59;3.35;;;1.90;;
79539;SDS011;68991;52.122;5.406;2023-06-22T02:24:25;2.78;;;1.75;;
79539;SDS011;68991;52.122;5.406;2023-06-22T02:26:52;2.00;;;1.52;;
79539;SDS011;68991;52.122;5.406;2023-06-22T02:29:18;2.28;;;1.60;;
79539;SDS011;68991;52.122;5.406;2023-06-22T02:31:45;2.60;;;1.80;;
79539;SDS011;68991;52.122;5.406;2023-06-22T02:34:11;2.10;;;1.52;;
79539;SDS011;68991;52.122;5.406;2023-06-22T02:36:48;4.40;;;1.98;;
79539;SDS011;68991;52.122;5.406;2023-06-22T02:39:18;2.35;;;1.55;;
79539;SDS011;68991;52.122;5.406;2023-06-22T02:41:52;2.70;;;1.80;;
79539;SDS011;68991;52.122;5.406;2023-06-22T02:44:20;2.92;;;2.10;;
79539;SDS011;68991;52.122;5.406;2023-06-22T02:46:47;3.55;;;1.55;;
79539;SDS011;68991;52.122;5.406;2023-06-22T02:49:14;2.63;;;1.65;;
79539;SDS011;68991;52.122;5.406;2023-06-22T02:51:42;4.97;;;2.20;;
79539;SDS011;68991;52.122;5.406;2023-06-22T02:54:11;2.45;;;1.60;;
79539;SDS011;68991;52.122;5.406;2023-06-22T02:56:37;3.30;;;1.33;;
79539;SDS011;68991;52.122;5.406;2023-06-22T02:59:06;1.90;;;1.42;;
79539;SDS011;68991;52.122;5.406;2023-06-22T03:01:33;2.75;;;1.65;;
79539;SDS011;68991;52.122;5.406;2023-06-22T03:04:04;2.35;;;1.83;;
79539;SDS011;68991;52.122;5.406;2023-06-22T03:06:31;2.90;;;1.70;;
79539;SDS011;68991;52.122;5.406;2023-06-22T03:09:01;2.50;;;1.73;;
79539;SDS011;68991;52.122;5.406;2023-06-22T03:11:30;1.88;;;1.58;;
79539;SDS011;68991;52.122;5.406;2023-06-22T03:13:57;2.95;;;1.88;;
79539;SDS011;68991;52.122;5.406;2023-06-22T03:16:24;2.10;;;1.80;;
79539;SDS011;68991;52.122;5.406;2023-06-22T03:18:51;2.25;;;1.65;;
79539;SDS011;68991;52.122;5.406;2023-06-22T03:21:21;2.35;;;1.70;;
79539;SDS011;68991;52.122;5.406;2023-06-22T03:23:48;2.50;;;1.77;;
79539;SDS011;68991;52.122;5.406;2023-06-22T03:26:16;2.50;;;1.70;;
79539;SDS011;68991;52.122;5.406;2023-06-22T03:28:44;2.53;;;1.50;;
79539;SDS011;68991;52.122;5.406;2023-06-22T03:31:10;5.88;;;2.58;;
79539;SDS011;68991;52.122;5.406;2023-06-22T03:33:37;3.80;;;2.95;;
79539;SDS011;68991;52.122;5.406;2023-06-22T03:36:03;5.55;;;3.65;;
79539;SDS011;68991;52.122;5.406;2023-06-22T03:38:30;6.18;;;3.67;;
79539;SDS011;68991;52.122;5.406;2023-06-22T03:40:56;4.93;;;3.42;;
79539;SDS011;68991;52.122;5.406;2023-06-22T03:43:23;4.20;;;2.95;;
79539;SDS011;68991;52.122;5.406;2023-06-22T03:45:50;8.18;;;3.65;;
79539;SDS011;68991;52.122;5.406;2023-06-22T03:48:16;6.63;;;3.97;;
79539;SDS011;68991;52.122;5.406;2023-06-22T03:50:43;5.82;;;3.45;;
79539;SDS011;68991;52.122;5.406;2023-06-22T03:53:10;3.20;;;2.40;;
79539;SDS011;68991;52.122;5.406;2023-06-22T03:55:37;5.75;;;2.80;;
79539;SDS011;68991;52.122;5.406;2023-06-22T03:58:06;6.00;;;3.05;;
79539;SDS011;68991;52.122;5.406;2023-06-22T04:00:33;6.38;;;3.17;;
79539;SDS011;68991;52.122;5.406;2023-06-22T04:02:59;3.95;;;2.63;;
79539;SDS011;68991;52.122;5.406;2023-06-22T04:05:26;4.15;;;3.17;;
79539;SDS011;68991;52.122;5.406;2023-06-22T04:07:53;5.57;;;3.58;;
79539;SDS011;68991;52.122;5.406;2023-06-22T04:10:19;4.75;;;2.45;;
79539;SDS011;68991;52.122;5.406;2023-06-22T04:12:46;4.55;;;2.20;;
79539;SDS011;68991;52.122;5.406;2023-06-22T04:15:13;4.57;;;2.58;;
79539;SDS011;68991;52.122;5.406;2023-06-22T04:17:39;3.97;;;2.30;;
79539;SDS011;68991;52.122;5.406;2023-06-22T04:20:06;3.25;;;2.30;;
79539;SDS011;68991;52.122;5.406;2023-06-22T04:22:34;3.67;;;1.90;;
79539;SDS011;68991;52.122;5.406;2023-06-22T04:25:00;2.65;;;1.98;;
79539;SDS011;68991;52.122;5.406;2023-06-22T04:27:26;4.30;;;1.95;;
79539;SDS011;68991;52.122;5.406;2023-06-22T04:29:53;2.78;;;2.35;;
79539;SDS011;68991;52.122;5.406;2023-06-22T04:32:19;3.42;;;1.90;;
79539;SDS011;68991;52.122;5.406;2023-06-22T04:34:46;5.43;;;2.10;;
79539;SDS011;68991;52.122;5.406;2023-06-22T04:37:12;2.28;;;1.70;;
79539;SDS011;68991;52.122;5.406;2023-06-22T04:39:42;2.60;;;1.75;;
79539;SDS011;68991;52.122;5.406;2023-06-22T04:42:09;3.15;;;2.08;;
79539;SDS011;68991;52.122;5.406;2023-06-22T04:44:36;3.08;;;2.00;;
79539;SDS011;68991;52.122;5.406;2023-06-22T04:47:02;5.18;;;2.50;;
79539;SDS011;68991;52.122;5.406;2023-06-22T04:49:30;7.70;;;5.00;;
79539;SDS011;68991;52.122;5.406;2023-06-22T04:52:00;10.95;;;5.68;;
79539;SDS011;68991;52.122;5.406;2023-06-22T04:54:27;8.95;;;5.85;;
79539;SDS011;68991;52.122;5.406;2023-06-22T04:56:54;11.07;;;6.28;;
79539;SDS011;68991;52.122;5.406;2023-06-22T04:59:23;9.32;;;6.00;;
79539;SDS011;68991;52.122;5.406;2023-06-22T05:01:58;12.18;;;7.88;;
79539;SDS011;68991;52.122;5.406;2023-06-22T05:04:27;10.23;;;6.75;;
79539;SDS011;68991;52.122;5.406;2023-06-22T05:06:54;11.52;;;7.70;;
79539;SDS011;68991;52.122;5.406;2023-06-22T05:09:21;12.75;;;7.53;;
79539;SDS011;68991;52.122;5.406;2023-06-22T05:11:48;12.35;;;8.00;;
79539;SDS011;68991;52.122;5.406;2023-06-22T05:14:14;12.18;;;7.80;;
79539;SDS011;68991;52.122;5.406;2023-06-22T05:16:41;12.18;;;7.93;;
79539;SDS011;68991;52.122;5.406;2023-06-22T05:19:08;11.65;;;7.85;;
79539;SDS011;68991;52.122;5.406;2023-06-22T05:21:36;13.05;;;8.73;;
79539;SDS011;68991;52.122;5.406;2023-06-22T05:24:02;13.13;;;9.15;;
79539;SDS011;68991;52.122;5.406;2023-06-22T05:26:30;13.20;;;8.65;;
79539;SDS011;68991;52.122;5.406;2023-06-22T05:28:57;14.88;;;8.95;;
79539;SDS011;68991;52.122;5.406;2023-06-22T05:31:25;15.93;;;10.80;;
79539;SDS011;68991;52.122;5.406;2023-06-22T05:33:52;15.90;;;10.38;;
79539;SDS011;68991;52.122;5.406;2023-06-22T05:36:20;14.07;;;9.45;;
79539;SDS011;68991;52.122;5.406;2023-06-22T05:38:47;16.58;;;9.82;;
79539;SDS011;68991;52.122;5.406;2023-06-22T05:41:14;10.73;;;7.25;;
79539;SDS011;68991;52.122;5.406;2023-06-22T05:43:40;11.02;;;6.70;;
79539;SDS011;68991;52.122;5.406;2023-06-22T05:46:07;8.93;;;5.93;;
79539;SDS011;68991;52.122;5.406;2023-06-22T05:48:33;10.35;;;7.15;;
79539;SDS011;68991;52.122;5.406;2023-06-22T05:51:00;9.15;;;5.78;;
79539;SDS011;68991;52.122;5.406;2023-06-22T05:53:26;9.85;;;5.38;;
79539;SDS011;68991;52.122;5.406;2023-06-22T05:55:53;7.55;;;5.30;;
79539;SDS011;68991;52.122;5.406;2023-06-22T05:58:19;8.80;;;5.38;;
79539;SDS011;68991;52.122;5.406;2023-06-22T06:00:46;7.13;;;5.32;;
79539;SDS011;68991;52.122;5.406;2023-06-22T06:03:13;8.10;;;4.72;;
79539;SDS011;68991;52.122;5.406;2023-06-22T06:05:43;7.68;;;4.63;;
79539;SDS011;68991;52.122;5.406;2023-06-22T06:08:12;7.65;;;5.00;;
79539;SDS011;68991;52.122;5.406;2023-06-22T06:10:38;6.95;;;4.28;;
79539;SDS011;68991;52.122;5.406;2023-06-22T06:13:05;6.90;;;3.38;;
79539;SDS011;68991;52.122;5.406;2023-06-22T06:15:32;5.95;;;3.72;;
79539;SDS011;68991;52.122;5.406;2023-06-22T06:17:59;7.22;;;4.07;;
79539;SDS011;68991;52.122;5.406;2023-06-22T06:20:26;7.15;;;3.40;;
79539;SDS011;68991;52.122;5.406;2023-06-22T06:22:57;6.60;;;3.90;;
79539;SDS011;68991;52.122;5.406;2023-06-22T06:25:23;7.68;;;3.58;;
79539;SDS011;68991;52.122;5.406;2023-06-22T06:27:50;5.00;;;3.20;;
79539;SDS011;68991;52.122;5.406;2023-06-22T06:30:18;6.35;;;3.33;;
79539;SDS011;68991;52.122;5.406;2023-06-22T06:32:45;6.28;;;3.90;;
79539;SDS011;68991;52.122;5.406;2023-06-22T06:35:13;6.10;;;3.53;;
79539;SDS011;68991;52.122;5.406;2023-06-22T06:37:42;4.95;;;3.13;;
79539;SDS011;68991;52.122;5.406;2023-06-22T06:40:11;5.38;;;3.20;;
79539;SDS011;68991;52.122;5.406;2023-06-22T06:42:46;4.70;;;3.30;;
79539;SDS011;68991;52.122;5.406;2023-06-22T06:45:20;6.55;;;3.30;;
79539;SDS011;68991;52.122;5.406;2023-06-22T06:47:49;6.57;;;3.40;;
79539;SDS011;68991;52.122;5.406;2023-06-22T06:50:17;6.38;;;3.38;;
79539;SDS011;68991;52.122;5.406;2023-06-22T06:52:44;4.43;;;3.22;;
79539;SDS011;68991;52.122;5.406;2023-06-22T06:55:11;5.78;;;3.10;;
79539;SDS011;68991;52.122;5.406;2023-06-22T06:57:40;4.95;;;2.90;;
79539;SDS011;68991;52.122;5.406;2023-06-22T07:00:11;4.95;;;2.83;;
79539;SDS011;68991;52.122;5.406;2023-06-22T07:02:41;4.20;;;2.78;;
79539;SDS011;68991;52.122;5.406;2023-06-22T07:05:09;5.18;;;3.15;;
79539;SDS011;68991;52.122;5.406;2023-06-22T07:07:36;4.35;;;3.00;;
79539;SDS011;68991;52.122;5.406;2023-06-22T07:10:04;7.88;;;3.22;;
79539;SDS011;68991;52.122;5.406;2023-06-22T07:12:32;4.50;;;2.85;;
79539;SDS011;68991;52.122;5.406;2023-06-22T07:15:05;5.30;;;2.83;;
79539;SDS011;68991;52.122;5.406;2023-06-22T07:17:36;5.22;;;2.65;;
79539;SDS011;68991;52.122;5.406;2023-06-22T07:20:03;3.83;;;3.08;;
79539;SDS011;68991;52.122;5.406;2023-06-22T07:22:38;4.45;;;2.47;;
79539;SDS011;68991;52.122;5.406;2023-06-22T07:25:06;3.80;;;2.60;;
79539;SDS011;68991;52.122;5.406;2023-06-22T07:27:37;5.22;;;3.10;;
79539;SDS011;68991;52.122;5.406;2023-06-22T07:30:11;3.67;;;2.78;;
79539;SDS011;68991;52.122;5.406;2023-06-22T07:32:38;3.10;;;2.60;;
79539;SDS011;68991;52.122;5.406;2023-06-22T07:35:05;3.13;;;2.22;;
79539;SDS011;68991;52.122;5.406;2023-06-22T07:37:32;4.47;;;3.10;;
79539;SDS011;68991;52.122;5.406;2023-06-22T07:40:01;4.10;;;2.55;;
79539;SDS011;68991;52.122;5.406;2023-06-22T07:42:32;3.83;;;2.75;;
79539;SDS011;68991;52.122;5.406;2023-06-22T07:45:02;4.60;;;2.60;;
79539;SDS011;68991;52.122;5.406;2023-06-22T07:47:29;4.50;;;2.55;;
79539;SDS011;68991;52.122;5.406;2023-06-22T07:49:57;3.25;;;2.58;;
79539;SDS011;68991;52.122;5.406;2023-06-22T07:52:27;4.45;;;2.67;;
79539;SDS011;68991;52.122;5.406;2023-06-22T07:54:54;5.25;;;2.80;;
79539;SDS011;68991;52.122;5.406;2023-06-22T07:57:21;3.75;;;2.78;;
79539;SDS011;68991;52.122;5.406;2023-06-22T07:59:47;4.03;;;3.10;;
79539;SDS011;68991;52.122;5.406;2023-06-22T08:02:14;5.43;;;2.45;;
79539;SDS011;68991;52.122;5.406;2023-06-22T08:04:40;3.00;;;2.17;;
79539;SDS011;68991;52.122;5.406;2023-06-22T08:07:07;4.28;;;2.42;;
79539;SDS011;68991;52.122;5.406;2023-06-22T08:09:34;4.05;;;2.53;;
79539;SDS011;68991;52.122;5.406;2023-06-22T08:12:00;3.45;;;2.45;;
79539;SDS011;68991;52.122;5.406;2023-06-22T08:14:27;4.20;;;2.40;;
79539;SDS011;68991;52.122;5.406;2023-06-22T08:16:55;3.47;;;2.10;;
79539;SDS011;68991;52.122;5.406;2023-06-22T08:19:22;4.75;;;2.60;;
79539;SDS011;68991;52.122;5.406;2023-06-22T08:21:48;3.83;;;2.35;;
79539;SDS011;68991;52.122;5.406;2023-06-22T08:24:15;3.13;;;2.58;;
79539;SDS011;68991;52.122;5.406;2023-06-22T08:26:41;4.55;;;3.00;;
79539;SDS011;68991;52.122;5.406;2023-06-22T08:29:08;2.88;;;2.10;;
79539;SDS011;68991;52.122;5.406;2023-06-22T08:31:35;3.80;;;2.83;;
79539;SDS011;68991;52.122;5.406;2023-06-22T08:34:01;5.22;;;2.60;;
79539;SDS011;68991;52.122;5.406;2023-06-22T08:36:28;3.67;;;2.78;;
79539;SDS011;68991;52.122;5.406;2023-06-22T08:38:59;4.07;;;2.63;;
79539;SDS011;68991;52.122;5.406;2023-06-22T08:41:27;3.95;;;2.35;;
79539;SDS011;68991;52.122;5.406;2023-06-22T08:43:54;3.10;;;2.50;;
79539;SDS011;68991;52.122;5.406;2023-06-22T08:46:21;3.55;;;2.58;;
79539;SDS011;68991;52.122;5.406;2023-06-22T08:48:50;4.72;;;2.58;;
79539;SDS011;68991;52.122;5.406;2023-06-22T08:51:17;3.20;;;2.63;;
79539;SDS011;68991;52.122;5.406;2023-06-22T08:53:43;2.88;;;2.50;;
79539;SDS011;68991;52.122;5.406;2023-06-22T08:56:11;3.55;;;2.28;;
79539;SDS011;68991;52.122;5.406;2023-06-22T08:58:38;3.55;;;2.65;;
79539;SDS011;68991;52.122;5.406;2023-06-22T09:01:04;3.17;;;2.85;;
79539;SDS011;68991;52.122;5.406;2023-06-22T09:03:31;3.47;;;2.03;;
79539;SDS011;68991;52.122;5.406;2023-06-22T09:05:59;3.00;;;2.58;;
79539;SDS011;68991;52.122;5.406;2023-06-22T09:08:25;3.20;;;2.47;;
79539;SDS011;68991;52.122;5.406;2023-06-22T09:10:52;2.88;;;2.58;;
79539;SDS011;68991;52.122;5.406;2023-06-22T09:13:18;3.53;;;2.45;;
79539;SDS011;68991;52.122;5.406;2023-06-22T09:15:45;4.13;;;2.67;;
79539;SDS011;68991;52.122;5.406;2023-06-22T09:18:12;4.15;;;2.80;;
79539;SDS011;68991;52.122;5.406;2023-06-22T09:20:39;4.28;;;2.60;;
79539;SDS011;68991;52.122;5.406;2023-06-22T09:23:06;3.83;;;2.72;;
79539;SDS011;68991;52.122;5.406;2023-06-22T09:25:32;3.17;;;2.65;;
79539;SDS011;68991;52.122;5.406;2023-06-22T09:27:59;3.35;;;2.38;;
79539;SDS011;68991;52.122;5.406;2023-06-22T09:30:25;2.83;;;2.15;;
79539;SDS011;68991;52.122;5.406;2023-06-22T09:32:52;3.38;;;2.60;;
79539;SDS011;68991;52.122;5.406;2023-06-22T09:35:18;2.63;;;2.40;;
79539;SDS011;68991;52.122;5.406;2023-06-22T09:37:46;3.10;;;2.55;;
79539;SDS011;68991;52.122;5.406;2023-06-22T09:40:12;3.97;;;3.25;;
79539;SDS011;68991;52.122;5.406;2023-06-22T09:42:39;2.50;;;2.10;;
79539;SDS011;68991;52.122;5.406;2023-06-22T09:45:07;3.10;;;2.50;;
79539;SDS011;68991;52.122;5.406;2023-06-22T09:47:34;3.17;;;2.65;;
79539;SDS011;68991;52.122;5.406;2023-06-22T09:50:00;3.58;;;2.35;;
79539;SDS011;68991;52.122;5.406;2023-06-22T09:52:27;3.67;;;2.60;;
79539;SDS011;68991;52.122;5.406;2023-06-22T09:55:12;3.10;;;2.67;;
79539;SDS011;68991;52.122;5.406;2023-06-22T09:57:39;3.65;;;2.30;;
79539;SDS011;68991;52.122;5.406;2023-06-22T10:00:05;3.25;;;2.15;;
79539;SDS011;68991;52.122;5.406;2023-06-22T10:02:35;3.28;;;2.30;;
79539;SDS011;68991;52.122;5.406;2023-06-22T10:05:02;4.00;;;2.35;;
79539;SDS011;68991;52.122;5.406;2023-06-22T10:07:29;2.92;;;2.50;;
79539;SDS011;68991;52.122;5.406;2023-06-22T10:09:56;2.58;;;2.17;;
79539;SDS011;68991;52.122;5.406;2023-06-22T10:12:22;2.85;;;2.13;;
79539;SDS011;68991;52.122;5.406;2023-06-22T10:14:49;3.75;;;3.03;;
79539;SDS011;68991;52.122;5.406;2023-06-22T10:17:16;3.17;;;2.63;;
79539;SDS011;68991;52.122;5.406;2023-06-22T10:19:42;2.95;;;2.60;;
79539;SDS011;68991;52.122;5.406;2023-06-22T10:22:08;3.40;;;2.25;;
79539;SDS011;68991;52.122;5.406;2023-06-22T10:24:35;3.22;;;2.92;;
79539;SDS011;68991;52.122;5.406;2023-06-22T10:27:01;3.13;;;2.40;;
79539;SDS011;68991;52.122;5.406;2023-06-22T10:29:28;3.55;;;2.55;;
79539;SDS011;68991;52.122;5.406;2023-06-22T10:31:54;2.53;;;2.28;;
79539;SDS011;68991;52.122;5.406;2023-06-22T10:34:21;2.83;;;2.40;;
79539;SDS011;68991;52.122;5.406;2023-06-22T10:36:47;3.88;;;2.58;;
79539;SDS011;68991;52.122;5.406;2023-06-22T10:39:15;3.90;;;2.30;;
79539;SDS011;68991;52.122;5.406;2023-06-22T10:41:41;2.85;;;2.05;;
79539;SDS011;68991;52.122;5.406;2023-06-22T10:44:08;3.10;;;2.47;;
79539;SDS011;68991;52.122;5.406;2023-06-22T10:46:35;3.08;;;2.20;;
79539;SDS011;68991;52.122;5.406;2023-06-22T10:49:01;2.88;;;2.00;;
79539;SDS011;68991;52.122;5.406;2023-06-22T10:51:28;2.60;;;2.38;;
79539;SDS011;68991;52.122;5.406;2023-06-22T10:53:54;2.85;;;2.22;;
79539;SDS011;68991;52.122;5.406;2023-06-22T10:56:21;3.20;;;2.50;;
79539;SDS011;68991;52.122;5.406;2023-06-22T10:58:47;3.55;;;2.47;;
79539;SDS011;68991;52.122;5.406;2023-06-22T11:01:14;2.92;;;2.22;;
79539;SDS011;68991;52.122;5.406;2023-06-22T11:04:00;2.85;;;2.20;;
79539;SDS011;68991;52.122;5.406;2023-06-22T11:06:27;2.92;;;2.45;;
79539;SDS011;68991;52.122;5.406;2023-06-22T11:08:53;3.00;;;2.15;;
79539;SDS011;68991;52.122;5.406;2023-06-22T11:13:56;2.83;;;2.20;;
79539;SDS011;68991;52.122;5.406;2023-06-22T11:16:23;2.38;;;1.98;;
79539;SDS011;68991;52.122;5.406;2023-06-22T11:18:49;2.72;;;2.22;;
79539;SDS011;68991;52.122;5.406;2023-06-22T11:21:15;2.83;;;2.33;;
79539;SDS011;68991;52.122;5.406;2023-06-22T11:23:42;2.42;;;2.13;;
79539;SDS011;68991;52.122;5.406;2023-06-22T11:26:09;2.78;;;1.95;;
79539;SDS011;68991;52.122;5.406;2023-06-22T11:28:35;2.60;;;2.15;;
79539;SDS011;68991;52.122;5.406;2023-06-22T11:31:02;3.00;;;2.28;;
79539;SDS011;68991;52.122;5.406;2023-06-22T11:33:46;2.40;;;2.20;;
79539;SDS011;68991;52.122;5.406;2023-06-22T11:36:14;3.75;;;2.58;;
79539;SDS011;68991;52.122;5.406;2023-06-22T11:38:41;2.80;;;2.45;;
79539;SDS011;68991;52.122;5.406;2023-06-22T11:41:09;3.00;;;2.58;;
79539;SDS011;68991;52.122;5.406;2023-06-22T11:43:36;3.08;;;2.47;;
79539;SDS011;68991;52.122;5.406;2023-06-22T11:46:03;3.45;;;2.00;;
79539;SDS011;68991;52.122;5.406;2023-06-22T11:48:30;3.40;;;2.67;;
79539;SDS011;68991;52.122;5.406;2023-06-22T11:50:57;2.83;;;2.13;;
79539;SDS011;68991;52.122;5.406;2023-06-22T11:53:25;3.55;;;2.50;;
79539;SDS011;68991;52.122;5.406;2023-06-22T11:55:53;3.03;;;2.28;;
79539;SDS011;68991;52.122;5.406;2023-06-22T11:58:21;3.17;;;2.38;;
79539;SDS011;68991;52.122;5.406;2023-06-22T12:00:48;3.10;;;2.47;;
79539;SDS011;68991;52.122;5.406;2023-06-22T12:03:18;3.55;;;2.28;;
79539;SDS011;68991;52.122;5.406;2023-06-22T12:05:45;3.10;;;2.50;;
79539;SDS011;68991;52.122;5.406;2023-06-22T12:08:12;2.92;;;2.13;;
79539;SDS011;68991;52.122;5.406;2023-06-22T12:10:39;2.80;;;2.00;;
79539;SDS011;68991;52.122;5.406;2023-06-22T12:13:06;2.70;;;2.05;;
79539;SDS011;68991;52.122;5.406;2023-06-22T12:15:32;2.95;;;2.10;;
79539;SDS011;68991;52.122;5.406;2023-06-22T12:17:59;3.28;;;2.97;;
79539;SDS011;68991;52.122;5.406;2023-06-22T12:20:27;2.67;;;2.20;;
79539;SDS011;68991;52.122;5.406;2023-06-22T12:22:54;3.00;;;2.15;;
79539;SDS011;68991;52.122;5.406;2023-06-22T12:25:22;3.20;;;2.63;;
79539;SDS011;68991;52.122;5.406;2023-06-22T12:27:49;2.92;;;2.10;;
79539;SDS011;68991;52.122;5.406;2023-06-22T12:30:15;2.75;;;2.33;;
79539;SDS011;68991;52.122;5.406;2023-06-22T12:32:42;2.95;;;2.20;;
79539;SDS011;68991;52.122;5.406;2023-06-22T12:35:09;3.38;;;2.33;;
79539;SDS011;68991;52.122;5.406;2023-06-22T12:37:40;3.08;;;2.15;;
79539;SDS011;68991;52.122;5.406;2023-06-22T12:40:08;3.05;;;2.40;;
79539;SDS011;68991;52.122;5.406;2023-06-22T12:42:36;3.38;;;2.40;;
79539;SDS011;68991;52.122;5.406;2023-06-22T12:45:03;2.50;;;2.08;;
79539;SDS011;68991;52.122;5.406;2023-06-22T12:47:29;2.80;;;2.10;;
79539;SDS011;68991;52.122;5.406;2023-06-22T12:49:56;4.07;;;3.00;;
79539;SDS011;68991;52.122;5.406;2023-06-22T12:52:23;3.22;;;2.47;;
79539;SDS011;68991;52.122;5.406;2023-06-22T12:54:49;3.15;;;2.60;;
79539;SDS011;68991;52.122;5.406;2023-06-22T12:57:21;3.53;;;2.35;;
79539;SDS011;68991;52.122;5.406;2023-06-22T12:59:48;4.50;;;2.50;;
79539;SDS011;68991;52.122;5.406;2023-06-22T13:02:14;3.95;;;2.10;;
79539;SDS011;68991;52.122;5.406;2023-06-22T13:04:41;2.65;;;2.40;;
79539;SDS011;68991;52.122;5.406;2023-06-22T13:07:09;4.05;;;2.38;;
79539;SDS011;68991;52.122;5.406;2023-06-22T13:09:48;2.92;;;2.38;;
79539;SDS011;68991;52.122;5.406;2023-06-22T13:12:19;2.85;;;2.40;;
79539;SDS011;68991;52.122;5.406;2023-06-22T13:14:46;4.00;;;2.50;;
79539;SDS011;68991;52.122;5.406;2023-06-22T13:17:13;3.65;;;2.53;;
79539;SDS011;68991;52.122;5.406;2023-06-22T13:19:40;2.35;;;2.00;;
79539;SDS011;68991;52.122;5.406;2023-06-22T13:24:59;2.83;;;2.28;;
79539;SDS011;68991;52.122;5.406;2023-06-22T13:27:26;3.80;;;2.65;;
79539;SDS011;68991;52.122;5.406;2023-06-22T13:29:53;2.97;;;2.42;;
79539;SDS011;68991;52.122;5.406;2023-06-22T13:32:19;3.10;;;2.30;;
79539;SDS011;68991;52.122;5.406;2023-06-22T13:34:46;4.30;;;2.20;;
79539;SDS011;68991;52.122;5.406;2023-06-22T13:37:13;4.07;;;2.53;;
79539;SDS011;68991;52.122;5.406;2023-06-22T13:39:39;4.47;;;2.70;;
79539;SDS011;68991;52.122;5.406;2023-06-22T13:42:06;3.03;;;2.63;;
79539;SDS011;68991;52.122;5.406;2023-06-22T13:44:32;2.70;;;2.40;;
79539;SDS011;68991;52.122;5.406;2023-06-22T13:46:59;3.78;;;2.65;;
79539;SDS011;68991;52.122;5.406;2023-06-22T13:49:25;4.70;;;2.78;;
79539;SDS011;68991;52.122;5.406;2023-06-22T13:51:52;4.65;;;3.13;;
79539;SDS011;68991;52.122;5.406;2023-06-22T13:54:19;4.75;;;2.83;;
79539;SDS011;68991;52.122;5.406;2023-06-22T13:56:48;3.35;;;2.40;;
79539;SDS011;68991;52.122;5.406;2023-06-22T13:59:14;3.13;;;2.47;;
79539;SDS011;68991;52.122;5.406;2023-06-22T14:01:41;3.35;;;2.47;;
79539;SDS011;68991;52.122;5.406;2023-06-22T14:04:09;3.78;;;2.50;;
79539;SDS011;68991;52.122;5.406;2023-06-22T14:06:37;3.80;;;2.63;;
79539;SDS011;68991;52.122;5.406;2023-06-22T14:09:04;3.85;;;2.47;;
79539;SDS011;68991;52.122;5.406;2023-06-22T14:11:30;3.08;;;2.55;;
79539;SDS011;68991;52.122;5.406;2023-06-22T14:13:57;4.55;;;3.08;;
79539;SDS011;68991;52.122;5.406;2023-06-22T14:16:23;3.75;;;2.22;;
79539;SDS011;68991;52.122;5.406;2023-06-22T14:18:50;3.83;;;2.38;;
79539;SDS011;68991;52.122;5.406;2023-06-22T14:21:16;4.15;;;2.95;;
79539;SDS011;68991;52.122;5.406;2023-06-22T14:23:43;4.55;;;2.60;;
79539;SDS011;68991;52.122;5.406;2023-06-22T14:26:15;4.05;;;2.63;;
79539;SDS011;68991;52.122;5.406;2023-06-22T14:28:48;3.75;;;2.72;;
79539;SDS011;68991;52.122;5.406;2023-06-22T14:31:17;3.50;;;2.72;;
79539;SDS011;68991;52.122;5.406;2023-06-22T14:33:47;3.78;;;2.50;;
79539;SDS011;68991;52.122;5.406;2023-06-22T14:36:15;3.00;;;2.70;;
79539;SDS011;68991;52.122;5.406;2023-06-22T14:38:43;4.05;;;2.55;;
79539;SDS011;68991;52.122;5.406;2023-06-22T14:41:10;5.05;;;2.40;;
79539;SDS011;68991;52.122;5.406;2023-06-22T14:43:43;4.82;;;2.67;;
79539;SDS011;68991;52.122;5.406;2023-06-22T14:46:10;3.47;;;3.00;;
79539;SDS011;68991;52.122;5.406;2023-06-22T14:48:37;4.88;;;2.80;;
79539;SDS011;68991;52.122;5.406;2023-06-22T14:51:03;4.85;;;2.70;;
79539;SDS011;68991;52.122;5.406;2023-06-22T14:53:30;8.43;;;3.45;;
79539;SDS011;68991;52.122;5.406;2023-06-22T14:55:56;3.60;;;3.10;;
79539;SDS011;68991;52.122;5.406;2023-06-22T14:58:23;5.20;;;3.08;;
79539;SDS011;68991;52.122;5.406;2023-06-22T15:00:49;4.90;;;3.17;;
79539;SDS011;68991;52.122;5.406;2023-06-22T15:03:16;3.83;;;2.83;;
79539;SDS011;68991;52.122;5.406;2023-06-22T15:05:48;5.35;;;3.05;;
79539;SDS011;68991;52.122;5.406;2023-06-22T15:08:14;5.63;;;2.90;;